Time;durP1;ratioP1;P1;durP2;ratioP2;P2;SDS_P1;SDS_P2;PMS_P1;PMS_P2;Temp;Humidity;BMP_temperature;BMP_pressure;BME280_temperature;BME280_humidity;BME280_pressure;Samples;Min_cycle;Max_cycle;Signal;HPM_P1;HPM_P2
2024/02/05 00:01:54;;;;;;;2.37;0.90;;;;;;;8.25;74.92;100695.34;4149568;28;20289;-68
2024/02/05 00:03:55;;;;;;;1.83;0.60;;;;;;;8.24;75.19;100682.97;4148816;28;20030;-67
2024/02/05 00:05:55;;;;;;;2.35;0.98;;;;;;;8.31;75.11;100678.03;4148697;28;20034;-67
2024/02/05 00:07:55;;;;;;;2.77;0.90;;;;;;;8.18;75.27;100686.94;4148073;28;20056;-67
2024/02/05 00:09:56;;;;;;;1.67;0.60;;;;;;;8.26;75.45;100695.22;4149609;28;20261;-67
2024/02/05 00:11:56;;;;;;;3.35;0.98;;;;;;;8.26;75.16;100687.22;4150383;28;20034;-67
2024/02/05 00:13:57;;;;;;;3.17;0.77;;;;;;;8.23;75.27;100690.09;4149440;28;20148;-66
2024/02/05 00:15:57;;;;;;;1.17;0.50;;;;;;;8.14;75.48;100688.13;4149602;28;20117;-67
2024/02/05 00:17:58;;;;;;;1.63;0.70;;;;;;;8.14;75.74;100708.59;4148011;28;20026;-66
2024/02/05 00:19:58;;;;;;;1.67;0.70;;;;;;;8.27;75.24;100701.38;4149639;28;20042;-66
2024/02/05 00:21:59;;;;;;;2.28;0.80;;;;;;;8.17;75.48;100703.88;4149665;28;20601;-68
2024/02/05 00:24:00;;;;;;;3.45;0.70;;;;;;;8.23;75.13;100700.75;4149300;28;20038;-67
2024/02/05 00:26:00;;;;;;;1.77;0.68;;;;;;;8.22;75.24;100712.38;4148288;28;20113;-67
2024/02/05 00:28:01;;;;;;;1.98;0.70;;;;;;;8.27;74.96;100710.22;4147522;28;20034;-66
2024/02/05 00:30:04;;;;;;;2.80;0.80;;;;;;;8.16;75.07;100718.16;4157237;28;20030;-68
2024/02/05 00:32:04;;;;;;;1.75;0.80;;;;;;;8.20;75.42;100713.44;4159849;28;20105;-68
2024/02/05 00:34:05;;;;;;;2.00;0.77;;;;;;;8.20;75.25;100716.13;4157718;28;20036;-67
2024/02/05 00:36:07;;;;;;;;;;;;;;;8.07;75.78;100714.38;4155267;28;20038;-68
2024/02/05 00:38:07;;;;;;;3.30;0.70;;;;;;;8.01;76.17;100716.63;4152704;28;19924;-67
2024/02/05 00:40:08;;;;;;;2.97;0.90;;;;;;;8.06;76.01;100733.09;4149408;28;20579;-67
2024/02/05 00:42:08;;;;;;;2.25;0.65;;;;;;;8.19;75.51;100733.94;4148634;28;20080;-67
2024/02/05 00:44:09;;;;;;;1.75;0.70;;;;;;;8.18;75.72;100736.69;4149066;28;20034;-67
2024/02/05 00:46:20;;;;;;;3.65;0.95;;;;;;;8.22;75.50;100738.16;4148874;28;20029;-67
2024/02/05 00:48:20;;;;;;;3.88;1.05;;;;;;;8.00;76.95;100741.56;4148984;28;20536;-67
2024/02/05 00:50:20;;;;;;;2.25;0.80;;;;;;;7.97;77.80;100755.94;4149314;28;20109;-67
2024/02/05 00:52:21;;;;;;;2.45;0.85;;;;;;;7.90;78.96;100744.00;4149717;28;20088;-67
2024/02/05 00:54:21;;;;;;;2.13;0.80;;;;;;;7.79;80.45;100750.94;4151768;28;20105;-67
2024/02/05 00:56:22;;;;;;;2.90;0.80;;;;;;;7.76;80.75;100748.53;4151036;28;20034;-67
2024/02/05 00:58:23;;;;;;;2.55;0.82;;;;;;;7.79;81.30;100744.78;4152483;28;20420;-68
2024/02/05 01:00:23;;;;;;;2.28;1.10;;;;;;;7.76;81.58;100739.69;4153839;28;20057;-68
2024/02/05 01:02:24;;;;;;;3.22;1.08;;;;;;;7.78;81.50;100746.63;4156839;28;20026;-67
2024/02/05 01:04:25;;;;;;;4.18;1.13;;;;;;;7.81;81.08;100751.69;4153405;28;20081;-68
2024/02/05 01:06:26;;;;;;;3.83;1.52;;;;;;;7.88;80.69;100745.97;4159397;28;20033;-68
2024/02/05 01:08:26;;;;;;;2.70;1.20;;;;;;;7.81;80.64;100756.19;4163047;28;20367;-68
2024/02/05 01:10:27;;;;;;;2.95;1.00;;;;;;;7.86;80.28;100745.22;4163930;28;20093;-67
2024/02/05 01:12:27;;;;;;;2.97;0.90;;;;;;;7.89;79.81;100748.50;4162112;28;20030;-67
2024/02/05 01:14:28;;;;;;;3.17;1.35;;;;;;;7.77;80.15;100752.03;4163845;28;20057;-68
2024/02/05 01:16:28;;;;;;;2.75;1.00;;;;;;;7.79;80.00;100752.78;4163209;28;20375;-67
2024/02/05 01:18:29;;;;;;;2.40;1.05;;;;;;;7.85;79.82;100757.66;4162791;28;20113;-67
2024/02/05 01:20:29;;;;;;;4.00;0.90;;;;;;;7.80;80.01;100751.81;4149116;28;20033;-68
2024/02/05 01:22:30;;;;;;;2.80;1.00;;;;;;;7.82;79.84;100757.91;4148665;28;20457;-67
2024/02/05 01:24:30;;;;;;;3.33;1.20;;;;;;;7.83;80.10;100743.63;4148610;28;20029;-68
2024/02/05 01:26:31;;;;;;;2.50;1.00;;;;;;;7.66;80.75;100739.50;4148589;28;20056;-67
2024/02/05 01:28:31;;;;;;;2.95;1.10;;;;;;;7.59;81.75;100744.41;4146566;28;20495;-67
2024/02/05 01:30:32;;;;;;;2.63;1.13;;;;;;;7.59;81.99;100744.41;4148442;28;20445;-67
2024/02/05 01:32:32;;;;;;;2.53;1.00;;;;;;;7.54;82.48;100743.88;4148816;28;20311;-66
2024/02/05 01:34:33;;;;;;;2.58;0.90;;;;;;;7.60;82.37;100746.09;4148784;28;20038;-67
2024/02/05 01:36:33;;;;;;;2.88;1.25;;;;;;;7.60;82.54;100755.91;4148711;28;20037;-68
2024/02/05 01:38:34;;;;;;;4.50;0.93;;;;;;;7.66;82.31;100752.81;4147598;28;20072;-68
2024/02/05 01:40:36;;;;;;;2.80;0.98;;;;;;;7.74;81.63;100747.78;4147012;28;20030;-67
2024/02/05 01:42:38;;;;;;;4.22;1.20;;;;;;;7.69;81.89;100741.94;4148332;28;20390;-67
2024/02/05 01:44:39;;;;;;;3.80;1.23;;;;;;;7.52;82.81;100745.78;4148263;28;20026;-67
2024/02/05 01:46:39;;;;;;;6.00;1.45;;;;;;;7.62;82.27;100745.97;4148303;28;20172;-68
2024/02/05 01:48:40;;;;;;;3.33;1.20;;;;;;;7.69;81.93;100755.25;4147893;28;20033;-66
2024/02/05 01:50:41;;;;;;;4.07;1.02;;;;;;;7.59;82.25;100743.56;4148075;28;20084;-67
2024/02/05 01:52:48;;;;;;;3.90;1.20;;;;;;;7.62;81.66;100751.31;4147998;28;20497;-68
2024/02/05 01:54:50;;;;;;;3.60;1.05;;;;;;;7.73;81.43;100754.06;4147617;28;20026;-67
2024/02/05 01:56:54;;;;;;;3.20;1.00;;;;;;;7.79;81.09;100758.09;4147714;28;20033;-67
2024/02/05 01:58:54;;;;;;;4.47;1.25;;;;;;;7.56;81.41;100747.25;4148139;28;20479;-67
2024/02/05 02:00:55;;;;;;;4.28;1.60;;;;;;;7.67;81.11;100748.31;4147928;28;20073;-66
2024/02/05 02:02:56;;;;;;;4.05;1.42;;;;;;;7.59;81.25;100763.03;4148082;28;20057;-67
2024/02/05 02:04:58;;;;;;;3.20;1.42;;;;;;;7.66;80.98;100755.47;4147703;28;20605;-67
2024/02/05 02:06:59;;;;;;;3.08;1.20;;;;;;;7.65;81.01;100757.25;4147508;28;20021;-68
2024/02/05 02:09:00;;;;;;;;;;;;;;;7.64;81.22;100760.03;4148743;28;20372;-67
2024/02/05 02:11:00;;;;;;;4.13;1.10;;;;;;;7.71;80.95;100771.09;4149423;28;19916;-67
2024/02/05 02:13:01;;;;;;;3.03;1.30;;;;;;;7.69;81.06;100767.69;4149006;28;20253;-67
2024/02/05 02:15:03;;;;;;;3.38;1.40;;;;;;;7.69;81.03;100771.22;4149156;28;20033;-68
2024/02/05 02:17:05;;;;;;;3.58;1.10;;;;;;;7.62;81.10;100757.50;4147660;28;20021;-67
2024/02/05 02:19:43;;;;;;;3.10;1.17;;;;;;;7.73;80.43;100747.91;4147641;28;20091;-68
2024/02/05 02:21:46;;;;;;;3.28;0.93;;;;;;;7.86;80.18;100759.34;4146325;28;20495;-67
2024/02/05 02:23:47;;;;;;;3.38;1.10;;;;;;;7.77;80.33;100771.53;4146558;28;20041;-68
2024/02/05 02:25:50;;;;;;;4.78;1.42;;;;;;;7.77;80.33;100768.88;4147511;28;20566;-67
2024/02/05 02:27:50;;;;;;;3.63;1.20;;;;;;;7.72;80.55;100767.50;4147478;28;20021;-67
2024/02/05 02:29:51;;;;;;;3.72;1.27;;;;;;;7.76;80.57;100774.28;4148268;28;20029;-67
2024/02/05 02:31:53;;;;;;;;;;;;;;;7.64;80.88;100773.34;4148468;28;20430;-66
2024/02/05 02:33:53;;;;;;;;;;;;;;;7.62;81.20;100759.28;4148380;28;19909;-67
2024/02/05 02:36:02;;;;;;;3.90;1.17;;;;;;;7.67;80.83;100756.31;4148128;28;19955;-67
2024/02/05 02:38:12;;;;;;;3.90;1.10;;;;;;;7.65;80.88;100749.28;4145484;28;20575;-68
2024/02/05 02:40:16;;;;;;;4.53;1.20;;;;;;;7.61;81.15;100753.13;4150749;28;20120;-68
2024/02/05 02:42:18;;;;;;;3.55;1.35;;;;;;;7.73;81.00;100746.06;4147907;28;20470;-67
2024/02/05 02:44:19;;;;;;;2.92;1.15;;;;;;;7.66;81.30;100758.13;4147699;28;20422;-68
2024/02/05 02:46:20;;;;;;;;;;;;;;;7.56;81.96;100751.75;4133103;28;20033;-68
2024/02/05 02:48:20;;;;;;;4.67;1.37;;;;;;;7.57;81.83;100742.81;4136339;28;19917;-67
2024/02/05 02:50:21;;;;;;;3.92;1.20;;;;;;;7.62;81.91;100736.22;4142009;28;20098;-67
2024/02/05 02:52:22;;;;;;;3.30;1.10;;;;;;;7.59;82.01;100732.91;4131718;28;20026;-67
2024/02/05 02:54:22;;;;;;;3.28;1.55;;;;;;;7.65;81.67;100727.97;4138999;28;20030;-67
2024/02/05 02:56:23;;;;;;;2.97;1.00;;;;;;;7.64;81.71;100728.97;4147715;28;20541;-70
2024/02/05 02:58:23;;;;;;;9.32;1.60;;;;;;;7.58;82.28;100734.72;4147258;28;20034;-67
2024/02/05 03:00:23;;;;;;;3.55;1.27;;;;;;;7.59;82.50;100735.56;4146064;28;20675;-68
2024/02/05 03:02:24;;;;;;;3.20;1.27;;;;;;;7.52;82.43;100737.81;4147128;28;20458;-67
2024/02/05 03:04:25;;;;;;;5.57;1.20;;;;;;;7.58;82.08;100718.75;4147579;28;20108;-67
2024/02/05 03:06:26;;;;;;;5.80;1.90;;;;;;;7.56;82.11;100723.31;4147559;28;20505;-67
2024/02/05 03:08:27;;;;;;;5.40;1.45;;;;;;;7.58;81.59;100713.41;4145324;28;20478;-67
2024/02/05 03:10:27;;;;;;;3.03;1.10;;;;;;;7.56;81.90;100723.31;4147306;28;20040;-68
2024/02/05 03:12:27;;;;;;;6.68;1.50;;;;;;;7.61;81.61;100723.84;4146788;28;20033;-67
2024/02/05 03:14:28;;;;;;;3.67;1.20;;;;;;;7.62;81.39;100717.56;4146696;28;20489;-68
2024/02/05 03:16:28;;;;;;;3.13;1.23;;;;;;;7.68;81.04;100718.09;4146054;28;20319;-67
2024/02/05 03:18:28;;;;;;;4.90;1.35;;;;;;;7.63;80.99;100716.63;4146651;28;20502;-67
2024/02/05 03:20:32;;;;;;;3.77;1.40;;;;;;;7.74;80.84;100712.34;4147647;28;20470;-67
2024/02/05 03:22:33;;;;;;;4.45;1.30;;;;;;;7.83;80.44;100711.69;4145636;28;20454;-67
2024/02/05 03:24:33;;;;;;;4.80;1.30;;;;;;;7.68;80.82;100702.13;4146856;28;20032;-68
2024/02/05 03:26:33;;;;;;;3.47;1.10;;;;;;;7.69;80.70;100706.47;4147130;28;20555;-67
2024/02/05 03:28:34;;;;;;;3.20;1.20;;;;;;;7.71;80.69;100701.91;4146866;28;20656;-68
2024/02/05 03:30:35;;;;;;;3.53;1.20;;;;;;;7.70;80.50;100710.84;4147410;28;20366;-67
2024/02/05 03:32:36;;;;;;;3.80;1.23;;;;;;;7.90;79.72;100701.41;4147538;28;20036;-66
2024/02/05 03:34:36;;;;;;;4.75;1.02;;;;;;;7.79;79.65;100702.19;4148740;28;20021;-68
2024/02/05 03:36:36;;;;;;;5.30;1.02;;;;;;;7.83;79.58;100711.69;4150627;28;20546;-67
2024/02/05 03:38:37;;;;;;;5.17;1.30;;;;;;;7.81;79.62;100721.59;4150145;28;20026;-67
2024/02/05 03:40:37;;;;;;;3.97;1.23;;;;;;;7.77;79.50;100706.78;4150766;28;20261;-67
2024/02/05 03:42:38;;;;;;;14.60;1.23;;;;;;;7.81;79.21;100711.78;4150376;28;20544;-67
2024/02/05 03:44:38;;;;;;;4.15;0.90;;;;;;;7.89;78.80;100719.22;4150399;28;20319;-68
2024/02/05 03:46:41;;;;;;;5.55;0.95;;;;;;;7.87;78.61;100723.78;4154174;28;20034;-68
2024/02/05 03:48:54;;;;;;;4.55;1.35;;;;;;;7.92;78.06;100716.34;4154274;28;20083;-68
2024/02/05 03:50:55;;;;;;;3.78;1.15;;;;;;;7.90;78.43;100717.38;4152998;28;20425;-67
2024/02/05 03:52:55;;;;;;;3.88;1.02;;;;;;;7.84;78.34;100702.72;4153565;28;20022;-66
2024/02/05 03:54:55;;;;;;;4.13;1.30;;;;;;;7.82;78.35;100720.63;4155336;28;20053;-68
2024/02/05 03:56:58;;;;;;;4.67;1.13;;;;;;;7.83;78.11;100713.47;4153804;28;20533;-67
2024/02/05 03:58:58;;;;;;;3.05;1.05;;;;;;;7.86;77.89;100711.44;4153976;28;20018;-67
2024/02/05 04:00:59;;;;;;;3.10;1.10;;;;;;;7.88;77.75;100714.84;4150423;28;20045;-68
2024/02/05 04:02:59;;;;;;;5.53;1.43;;;;;;;7.96;77.66;100712.47;4150393;28;20058;-68
2024/02/05 04:04:59;;;;;;;2.53;0.87;;;;;;;7.91;77.43;100722.63;4150176;28;20277;-68
2024/02/05 04:07:00;;;;;;;4.63;1.10;;;;;;;7.92;77.43;100716.34;4149610;28;20283;-66
2024/02/05 04:09:00;;;;;;;3.97;1.25;;;;;;;7.91;77.25;100724.41;4149047;28;20470;-67
2024/02/05 04:11:01;;;;;;;7.75;1.10;;;;;;;7.84;77.42;100707.19;4150356;28;20037;-68
2024/02/05 04:13:01;;;;;;;3.72;1.15;;;;;;;7.89;77.34;100721.88;4150249;28;20446;-68
2024/02/05 04:15:02;;;;;;;4.20;1.00;;;;;;;7.93;76.94;100722.50;4150107;28;20034;-67
2024/02/05 04:17:03;;;;;;;2.60;0.90;;;;;;;7.93;76.98;100728.69;4149865;28;20084;-67
2024/02/05 04:19:03;;;;;;;4.00;0.98;;;;;;;7.92;76.90;100736.78;4150279;28;20037;-67
2024/02/05 04:21:04;;;;;;;2.77;1.20;;;;;;;7.96;76.79;100728.44;4150051;28;20115;-67
2024/02/05 04:23:05;;;;;;;3.35;1.08;;;;;;;7.94;76.96;100725.03;4150242;28;20312;-67
2024/02/05 04:25:08;;;;;;;2.80;0.90;;;;;;;7.95;76.92;100729.41;4150215;28;20386;-67
2024/02/05 04:27:09;;;;;;;3.28;0.90;;;;;;;7.97;76.66;100730.16;4148235;28;20141;-68
2024/02/05 04:29:20;;;;;;;4.30;1.50;;;;;;;8.04;76.35;100727.91;4150474;28;20103;-68
2024/02/05 04:31:20;;;;;;;4.17;0.90;;;;;;;7.93;76.70;100742.00;4150378;28;20017;-67
2024/02/05 04:33:20;;;;;;;4.60;0.95;;;;;;;7.94;76.65;100740.19;4149766;28;20260;-68
2024/02/05 04:35:21;;;;;;;2.95;0.95;;;;;;;7.97;76.48;100748.78;4149845;28;20401;-68
2024/02/05 04:37:22;;;;;;;4.45;1.58;;;;;;;7.98;76.43;100749.66;4148223;28;20080;-67
2024/02/05 04:39:23;;;;;;;2.25;0.90;;;;;;;8.04;76.30;100753.66;4150186;28;20030;-67
2024/02/05 04:41:24;;;;;;;;;;;;;;;7.89;76.60;100748.50;4150643;28;20052;-68
2024/02/05 04:43:24;;;;;;;2.57;0.90;;;;;;;7.97;76.34;100750.63;4148921;28;19917;-66
2024/02/05 04:45:24;;;;;;;5.50;1.00;;;;;;;8.09;75.97;100760.34;4149321;28;20116;-68
2024/02/05 04:47:25;;;;;;;2.47;0.90;;;;;;;8.20;75.71;100758.72;4148898;28;20474;-67
2024/02/05 04:49:25;;;;;;;4.75;1.38;;;;;;;8.17;75.82;100759.81;4149589;28;20513;-68
2024/02/05 04:51:26;;;;;;;4.88;1.52;;;;;;;8.15;75.83;100764.41;4149449;28;20026;-67
2024/02/05 04:53:27;;;;;;;4.65;1.20;;;;;;;8.22;75.56;100752.31;4149702;28;20018;-67
2024/02/05 04:55:27;;;;;;;3.90;0.90;;;;;;;8.20;75.48;100762.25;4149563;28;20065;-68
2024/02/05 04:57:28;;;;;;;4.70;0.90;;;;;;;8.18;75.43;100760.66;4149056;28;20501;-68
2024/02/05 04:59:28;;;;;;;2.28;0.90;;;;;;;8.12;75.59;100761.97;4148204;28;20269;-67
2024/02/05 05:01:32;;;;;;;4.90;1.13;;;;;;;8.09;75.58;100754.19;4149188;28;20049;-66
2024/02/05 05:03:35;;;;;;;3.78;0.95;;;;;;;8.20;75.37;100750.75;4149139;28;20372;-68
2024/02/05 05:05:36;;;;;;;2.67;1.05;;;;;;;8.21;75.40;100742.66;4148851;28;20045;-68
2024/02/05 05:07:37;;;;;;;1.67;0.70;;;;;;;8.21;75.23;100755.09;4148204;28;20029;-68
2024/02/05 05:09:37;;;;;;;2.28;0.70;;;;;;;8.15;75.50;100764.41;4145988;28;20026;-68
2024/02/05 05:11:37;;;;;;;2.13;0.57;;;;;;;8.18;75.26;100764.19;4147868;28;20105;-66
2024/02/05 05:13:38;;;;;;;2.65;0.80;;;;;;;8.14;75.47;100768.00;4141901;28;20045;-68
2024/02/05 05:15:39;;;;;;;2.53;1.00;;;;;;;8.17;75.39;100767.81;4148804;28;20482;-67
2024/02/05 05:17:40;;;;;;;2.45;0.73;;;;;;;8.12;75.47;100765.47;4148250;28;20037;-67
2024/02/05 05:19:41;;;;;;;3.15;0.90;;;;;;;8.31;75.04;100769.47;4149385;28;20474;-67
2024/02/05 05:21:42;;;;;;;3.60;1.07;;;;;;;8.16;75.21;100774.09;4149357;28;20030;-68
2024/02/05 05:23:42;;;;;;;3.05;1.02;;;;;;;8.24;75.19;100773.53;4149307;28;20673;-67
2024/02/05 05:25:42;;;;;;;3.85;1.00;;;;;;;8.22;75.19;100768.31;4149011;28;20021;-68
2024/02/05 05:27:43;;;;;;;4.38;0.80;;;;;;;8.25;75.03;100773.41;4147374;28;20026;-68
2024/02/05 05:29:44;;;;;;;3.75;0.85;;;;;;;8.38;74.61;100769.88;4147723;28;20096;-67
2024/02/05 05:31:44;;;;;;;3.10;0.88;;;;;;;8.36;74.65;100766.47;4148787;28;20373;-68
2024/02/05 05:33:46;;;;;;;2.50;0.80;;;;;;;8.18;75.05;100769.50;4148781;28;20577;-67
2024/02/05 05:35:46;;;;;;;1.30;0.50;;;;;;;8.31;74.92;100779.28;4148571;28;20038;-67
2024/02/05 05:37:47;;;;;;;2.25;0.80;;;;;;;8.28;74.80;100777.66;4148243;28;20133;-67
2024/02/05 05:39:49;;;;;;;5.25;0.82;;;;;;;8.19;75.11;100763.22;4148440;28;20029;-67
2024/02/05 05:41:50;;;;;;;2.75;0.88;;;;;;;8.31;75.04;100768.63;4148616;28;20101;-67
2024/02/05 05:43:52;;;;;;;1.80;0.60;;;;;;;8.27;75.01;100765.31;4148751;28;20038;-67
2024/02/05 05:45:52;;;;;;;3.83;1.10;;;;;;;8.27;74.85;100760.84;4148573;28;20438;-67
2024/02/05 05:47:53;;;;;;;2.47;0.70;;;;;;;8.25;74.95;100754.78;4148466;28;20022;-68
2024/02/05 05:49:53;;;;;;;2.58;0.90;;;;;;;8.25;75.11;100761.94;4149644;28;20358;-67
2024/02/05 05:51:54;;;;;;;4.13;0.80;;;;;;;8.31;74.89;100757.97;4149520;28;20177;-68
2024/02/05 05:53:55;;;;;;;2.85;0.80;;;;;;;8.21;75.09;100753.31;4148900;28;20033;-68
2024/02/05 05:56:11;;;;;;;1.63;0.70;;;;;;;8.26;75.06;100753.81;4148722;28;20026;-68
2024/02/05 05:58:21;;;;;;;2.90;0.80;;;;;;;8.35;74.81;100759.44;4148811;28;20029;-68
2024/02/05 06:00:25;;;;;;;4.53;0.85;;;;;;;8.30;74.70;100753.59;4148277;28;20076;-67
2024/02/05 06:02:26;;;;;;;2.67;0.65;;;;;;;8.34;74.68;100763.06;4148460;28;20029;-67
2024/02/05 06:04:27;;;;;;;3.33;1.05;;;;;;;8.30;74.80;100761.59;4148830;28;20025;-70
2024/02/05 06:06:28;;;;;;;2.80;0.60;;;;;;;8.30;74.76;100772.25;4147789;28;20029;-67
2024/02/05 06:08:32;;;;;;;3.00;1.20;;;;;;;8.33;74.77;100761.34;4150007;28;20029;-68
2024/02/05 06:10:33;;;;;;;3.20;0.95;;;;;;;8.34;74.62;100771.03;4150674;28;20087;-67
2024/02/05 06:12:33;;;;;;;;;;;;;;;8.25;74.47;100769.91;4152099;28;20026;-68
2024/02/05 06:14:34;;;;;;;5.40;0.90;;;;;;;8.34;74.60;100760.38;4151561;28;19919;-68
2024/02/05 06:16:35;;;;;;;2.70;0.88;;;;;;;8.42;74.20;100761.53;4153675;28;20038;-67
2024/02/05 06:18:38;;;;;;;4.18;0.90;;;;;;;8.30;74.50;100758.94;4150586;28;20127;-67
2024/02/05 06:20:57;;;;;;;3.47;1.50;;;;;;;8.33;74.19;100761.34;4157150;28;20026;-67
2024/02/05 06:22:58;;;;;;;2.58;0.90;;;;;;;8.30;74.33;100767.75;4156851;28;20025;-68
2024/02/05 06:24:58;;;;;;;3.88;0.70;;;;;;;8.34;74.38;100763.91;4157990;28;20052;-69
2024/02/05 06:27:02;;;;;;;4.07;0.90;;;;;;;8.35;74.37;100764.75;4157156;28;20025;-67
2024/02/05 06:29:06;;;;;;;4.20;1.00;;;;;;;8.43;74.11;100770.38;4158613;28;20022;-68
2024/02/05 06:31:07;;;;;;;3.45;1.00;;;;;;;8.45;73.94;100763.13;4159667;28;20018;-68
2024/02/05 06:33:07;;;;;;;3.65;1.05;;;;;;;8.40;73.90;100759.94;4162961;28;20081;-68
2024/02/05 06:35:08;;;;;;;2.40;0.88;;;;;;;8.48;73.77;100764.72;4152403;28;20025;-67
2024/02/05 06:37:08;;;;;;;3.33;1.10;;;;;;;8.51;73.57;100762.69;4147377;28;20033;-68
2024/02/05 06:39:10;;;;;;;6.63;1.75;;;;;;;8.46;73.67;100761.28;4147872;28;20564;-67
2024/02/05 06:41:10;;;;;;;3.83;1.33;;;;;;;8.50;73.57;100758.31;4147834;28;20026;-67
2024/02/05 06:43:10;;;;;;;3.50;1.00;;;;;;;8.46;73.67;100763.94;4147474;28;20112;-68
2024/02/05 06:45:12;;;;;;;5.47;1.70;;;;;;;8.52;73.52;100764.38;4147358;28;20363;-68
2024/02/05 06:47:13;;;;;;;4.82;0.93;;;;;;;8.43;73.50;100773.03;4147446;28;20057;-67
2024/02/05 06:49:14;;;;;;;6.47;1.52;;;;;;;8.43;73.60;100757.03;4147761;28;20105;-69
2024/02/05 06:51:15;;;;;;;4.53;1.17;;;;;;;8.48;73.43;100768.25;4143970;28;20046;-67
2024/02/05 06:53:15;;;;;;;5.25;0.88;;;;;;;8.53;73.25;100763.44;4145038;28;20057;-68
2024/02/05 06:55:16;;;;;;;3.33;1.10;;;;;;;8.59;72.92;100770.13;4141182;28;20725;-68
2024/02/05 06:57:17;;;;;;;2.78;0.90;;;;;;;8.61;72.74;100778.84;4146170;28;20397;-68
2024/02/05 06:59:17;;;;;;;5.50;1.20;;;;;;;8.61;72.84;100780.66;4147173;28;20033;-67
2024/02/05 07:01:19;;;;;;;4.03;1.55;;;;;;;8.52;72.86;100785.69;4146993;28;20126;-68
2024/02/05 07:03:19;;;;;;;3.35;1.25;;;;;;;8.62;72.73;100782.34;4147694;28;20093;-68
2024/02/05 07:05:20;;;;;;;3.28;1.00;;;;;;;8.51;72.85;100788.50;4147656;28;20026;-68
2024/02/05 07:07:21;;;;;;;3.92;1.00;;;;;;;8.50;72.80;100790.28;4148553;28;20087;-68
2024/02/05 07:09:22;;;;;;;4.70;1.15;;;;;;;8.51;72.79;100781.34;4145422;28;20038;-68
2024/02/05 07:11:22;;;;;;;4.68;1.13;;;;;;;8.53;72.71;100782.06;4148145;28;20117;-68
2024/02/05 07:13:22;;;;;;;4.10;1.00;;;;;;;8.50;72.67;100787.63;4152097;28;20038;-68
2024/02/05 07:15:24;;;;;;;2.92;0.80;;;;;;;8.56;72.55;100789.00;4158179;28;20117;-68
2024/02/05 07:17:33;;;;;;;5.40;1.67;;;;;;;8.51;72.43;100791.16;4158518;28;20069;-68
2024/02/05 07:19:33;;;;;;;3.63;1.10;;;;;;;8.48;72.54;100797.56;4159794;28;20025;-68
2024/02/05 07:21:34;;;;;;;2.50;0.80;;;;;;;8.55;72.22;100787.28;4157640;28;20429;-68
2024/02/05 07:23:35;;;;;;;3.88;1.20;;;;;;;8.56;72.13;100791.66;4148177;28;20314;-67
2024/02/05 07:25:39;;;;;;;4.28;1.55;;;;;;;8.56;71.88;100794.31;4148051;28;20057;-68
2024/02/05 07:27:39;;;;;;;4.03;1.15;;;;;;;8.58;71.69;100792.41;4147031;28;20097;-67
2024/02/05 07:29:42;;;;;;;8.50;1.20;;;;;;;8.64;71.60;100799.09;4147174;28;20110;-68
2024/02/05 07:31:42;;;;;;;4.43;1.15;;;;;;;8.61;71.56;100785.97;4148119;28;20034;-68
2024/02/05 07:33:42;;;;;;;7.57;1.38;;;;;;;8.62;71.44;100783.22;4149199;28;20041;-66
2024/02/05 07:35:43;;;;;;;5.40;1.60;;;;;;;8.67;71.31;100790.88;4147440;28;20387;-68
2024/02/05 07:37:43;;;;;;;6.13;1.63;;;;;;;8.75;71.09;100788.50;4146962;28;20108;-67
2024/02/05 07:39:44;;;;;;;9.07;1.77;;;;;;;8.57;71.20;100780.03;4147589;28;20033;-68
2024/02/05 07:41:44;;;;;;;5.87;2.03;;;;;;;8.68;70.96;100787.25;4147435;28;20460;-68
2024/02/05 07:43:45;;;;;;;4.70;1.50;;;;;;;8.69;70.92;100783.63;4147358;28;20269;-68
2024/02/05 07:45:45;;;;;;;5.60;1.77;;;;;;;8.71;70.92;100781.66;4147717;28;20273;-68
2024/02/05 07:47:45;;;;;;;8.10;2.15;;;;;;;8.66;70.83;100783.84;4147264;28;20458;-68
2024/02/05 07:49:46;;;;;;;7.10;2.00;;;;;;;8.73;70.54;100787.75;4147898;28;20107;-68
2024/02/05 07:51:47;;;;;;;4.78;1.80;;;;;;;8.68;70.65;100793.41;4146356;28;20291;-68
2024/02/05 07:53:49;;;;;;;10.70;2.13;;;;;;;8.76;70.54;100784.84;4147541;28;20079;-69
2024/02/05 07:55:52;;;;;;;5.80;2.47;;;;;;;8.74;70.49;100786.78;4146035;28;20180;-68
2024/02/05 07:57:52;;;;;;;6.20;1.80;;;;;;;8.74;70.50;100784.13;4145879;28;20490;-68
2024/02/05 07:59:53;;;;;;;5.43;1.57;;;;;;;8.71;70.43;100785.19;4147159;28;20054;-68
2024/02/05 08:01:54;;;;;;;5.57;1.80;;;;;;;8.77;70.22;100796.34;4148081;28;20335;-67
2024/02/05 08:03:55;;;;;;;7.88;2.08;;;;;;;8.79;70.05;100789.09;4151703;28;20038;-68
2024/02/05 08:05:56;;;;;;;7.13;2.58;;;;;;;8.84;70.02;100789.59;4147628;28;20176;-67
2024/02/05 08:07:56;;;;;;;8.02;2.30;;;;;;;8.85;70.10;100792.16;4145149;28;20026;-68
2024/02/05 08:09:57;;;;;;;6.13;2.15;;;;;;;8.83;69.94;100796.75;4146763;28;20516;-69
2024/02/05 08:11:57;;;;;;;9.30;1.97;;;;;;;8.87;69.87;100792.91;4159762;28;20119;-68
2024/02/05 08:13:58;;;;;;;9.50;2.53;;;;;;;8.79;69.79;100800.59;4163146;28;20313;-68
2024/02/05 08:15:58;;;;;;;8.15;1.85;;;;;;;8.83;69.73;100809.25;4163420;28;20256;-71
2024/02/05 08:18:00;;;;;;;10.25;2.22;;;;;;;8.85;69.51;100800.16;4162243;28;20013;-67
2024/02/05 08:20:02;;;;;;;7.13;1.85;;;;;;;8.88;69.44;100807.91;4154833;28;20169;-68
2024/02/05 08:22:03;;;;;;;7.63;2.28;;;;;;;8.94;69.33;100808.44;4147791;28;20022;-69
2024/02/05 08:24:04;;;;;;;13.45;2.72;;;;;;;8.93;69.16;100812.06;4150433;28;20104;-68
2024/02/05 08:26:05;;;;;;;6.05;1.60;;;;;;;9.02;68.82;100803.38;4149912;28;20105;-68
2024/02/05 08:28:05;;;;;;;;;;;;;;;8.86;69.10;100807.19;4149688;28;20026;-68
2024/02/05 08:30:07;;;;;;;6.87;1.90;;;;;;;9.02;68.93;100812.22;4150132;28;20018;-70
2024/02/05 08:32:08;;;;;;;8.50;2.00;;;;;;;9.00;68.75;100813.28;4149020;28;20026;-68
2024/02/05 08:34:08;;;;;;;12.32;1.92;;;;;;;8.97;68.82;100810.88;4150204;28;20084;-67
2024/02/05 08:36:09;;;;;;;9.35;1.70;;;;;;;9.03;68.45;100800.56;4148580;28;20509;-68
2024/02/05 08:38:09;;;;;;;7.30;1.48;;;;;;;9.07;68.45;100814.53;4148977;28;20757;-67
2024/02/05 08:40:10;;;;;;;10.15;1.85;;;;;;;9.06;68.39;100815.53;4143734;28;20030;-68
2024/02/05 08:42:10;;;;;;;10.98;2.20;;;;;;;8.97;68.62;100798.38;4133802;28;20108;-68
2024/02/05 08:44:11;;;;;;;7.47;1.40;;;;;;;9.10;68.42;100811.63;4142782;28;20037;-68
2024/02/05 08:46:11;;;;;;;6.18;2.03;;;;;;;9.11;68.10;100810.66;4151238;28;20028;-67
2024/02/05 08:48:13;;;;;;;9.40;1.75;;;;;;;9.03;68.17;100810.41;4149892;28;20128;-68
2024/02/05 08:50:14;;;;;;;7.03;1.80;;;;;;;9.01;68.09;100805.19;4158079;28;20053;-67
2024/02/05 08:52:14;;;;;;;7.65;1.55;;;;;;;9.06;68.05;100820.84;4165185;28;20040;-68
2024/02/05 08:54:15;;;;;;;8.82;1.70;;;;;;;9.04;67.91;100812.09;4167220;28;20025;-68
2024/02/05 08:56:15;;;;;;;7.87;1.80;;;;;;;9.01;67.86;100813.19;4161632;28;20036;-68
2024/02/05 08:58:15;;;;;;;8.87;2.43;;;;;;;9.11;67.57;100808.00;4151823;28;20563;-68
2024/02/05 09:00:17;;;;;;;6.25;1.65;;;;;;;9.19;67.48;100807.44;4149766;28;20319;-68
2024/02/05 09:02:18;;;;;;;10.27;1.95;;;;;;;9.20;67.44;100809.97;4149438;28;20022;-68
2024/02/05 09:04:19;;;;;;;11.60;1.83;;;;;;;9.11;67.36;100809.84;4149532;28;20088;-68
2024/02/05 09:06:19;;;;;;;5.90;1.58;;;;;;;9.11;67.48;100805.34;4148885;28;20037;-67
2024/02/05 09:08:20;;;;;;;6.45;1.73;;;;;;;9.15;67.45;100800.63;4147916;28;20541;-67
2024/02/05 09:10:20;;;;;;;6.30;1.77;;;;;;;9.23;66.81;100813.38;4148403;28;20509;-67
2024/02/05 09:12:21;;;;;;;8.70;2.60;;;;;;;9.25;67.12;100812.28;4148665;28;20111;-68
2024/02/05 09:14:21;;;;;;;8.82;1.85;;;;;;;9.32;67.00;100805.50;4145705;28;20265;-66
2024/02/05 09:16:21;;;;;;;11.60;2.35;;;;;;;9.34;66.75;100806.25;4147479;28;20106;-67
2024/02/05 09:18:24;;;;;;;8.07;2.73;;;;;;;9.32;66.71;100802.00;4147449;28;20029;-66
2024/02/05 09:20:24;;;;;;;11.73;3.15;;;;;;;9.21;66.79;100797.47;4147529;28;20815;-66
2024/02/05 09:22:25;;;;;;;7.13;2.05;;;;;;;9.24;66.56;100805.25;4147649;28;20026;-67
2024/02/05 09:24:25;;;;;;;8.85;2.03;;;;;;;9.29;66.37;100796.88;4147031;28;20532;-67
2024/02/05 09:26:26;;;;;;;7.32;2.42;;;;;;;9.30;66.31;100807.47;4159014;28;20119;-67
2024/02/05 09:28:26;;;;;;;10.05;2.47;;;;;;;9.25;66.40;100798.09;4162185;28;20089;-66
2024/02/05 09:30:26;;;;;;;15.65;2.40;;;;;;;9.22;66.21;100801.84;4161986;28;20025;-68
2024/02/05 09:32:28;;;;;;;5.47;1.70;;;;;;;9.35;66.01;100801.78;4162040;28;20042;-67